Time;durP1;ratioP1;P1;durP2;ratioP2;P2;SDS_P1;SDS_P2;PMS_P1;PMS_P2;Temp;Humidity;BMP_temperature;BMP_pressure;BME280_temperature;BME280_humidity;BME280_pressure;Samples;Min_cycle;Max_cycle;Signal;HPM_P1;HPM_P2
2023/10/31 00:01:51;;;;;;;5.35;4.50;;;12.20;99.90;;;;;;5074818;28;20737;-65
2023/10/31 00:04:17;;;;;;;6.70;5.25;;;12.20;99.90;;;;;;5071838;28;20567;-65
2023/10/31 00:06:43;;;;;;;6.18;5.30;;;12.10;99.90;;;;;;5053216;28;20182;-65
2023/10/31 00:09:10;;;;;;;8.80;6.40;;;12.10;99.90;;;;;;5054739;28;20178;-61
2023/10/31 00:11:36;;;;;;;7.32;6.60;;;12.10;99.90;;;;;;5054254;28;20740;-65
2023/10/31 00:14:02;;;;;;;8.10;7.20;;;12.00;99.90;;;;;;5054407;28;20528;-63
2023/10/31 00:16:28;;;;;;;8.38;7.50;;;11.90;99.90;;;;;;5054249;28;20640;-62
2023/10/31 00:18:54;;;;;;;10.23;8.57;;;11.80;99.90;;;;;;5054012;28;20175;-62
2023/10/31 00:21:20;;;;;;;9.85;8.57;;;11.70;99.90;;;;;;5054336;28;20264;-64
2023/10/31 00:23:49;;;;;;;11.07;8.52;;;11.60;99.90;;;;;;5054046;28;20179;-62
2023/10/31 00:26:15;;;;;;;8.65;7.57;;;11.50;99.90;;;;;;5054206;28;20201;-64
2023/10/31 00:28:41;;;;;;;7.65;6.85;;;11.50;99.90;;;;;;5063238;28;20611;-64
2023/10/31 00:31:08;;;;;;;6.85;6.15;;;11.40;99.90;;;;;;5073860;28;20284;-66
2023/10/31 00:33:34;;;;;;;8.07;6.43;;;11.30;99.90;;;;;;5073954;28;20176;-65
2023/10/31 00:36:01;;;;;;;6.20;5.65;;;11.30;99.90;;;;;;5057489;28;20190;-64
2023/10/31 00:38:27;;;;;;;5.90;5.20;;;11.20;99.90;;;;;;5054015;28;20261;-65
2023/10/31 00:40:53;;;;;;;6.18;5.57;;;11.10;99.90;;;;;;5053820;28;20201;-64
2023/10/31 00:43:19;;;;;;;5.35;4.47;;;11.10;99.90;;;;;;5054282;28;20174;-65
2023/10/31 00:45:45;;;;;;;5.10;4.60;;;11.10;99.90;;;;;;5053612;28;20225;-65
2023/10/31 00:48:10;;;;;;;5.18;4.70;;;11.00;99.90;;;;;;5053988;28;20170;-61
2023/10/31 00:50:36;;;;;;;4.97;4.55;;;10.90;99.90;;;;;;5053652;28;20190;-65
2023/10/31 00:53:02;;;;;;;7.00;4.70;;;10.90;99.90;;;;;;5053577;28;20170;-65
2023/10/31 00:55:28;;;;;;;6.60;5.38;;;10.80;99.90;;;;;;5053562;28;20178;-65
2023/10/31 00:57:53;;;;;;;5.55;4.57;;;10.70;99.90;;;;;;5056163;28;20207;-65
2023/10/31 01:00:19;;;;;;;4.60;4.20;;;10.70;99.90;;;;;;5073289;28;20200;-65
2023/10/31 01:02:45;;;;;;;5.15;4.75;;;10.70;99.90;;;;;;5073423;28;20190;-63
2023/10/31 01:05:11;;;;;;;5.68;5.18;;;10.70;99.90;;;;;;5063800;28;20206;-63
2023/10/31 01:07:37;;;;;;;4.60;4.20;;;10.70;99.90;;;;;;5053791;28;20181;-64
2023/10/31 01:10:04;;;;;;;4.93;4.15;;;10.70;99.90;;;;;;5054241;28;20171;-64
2023/10/31 01:12:30;;;;;;;4.47;4.18;;;10.70;99.90;;;;;;5053472;28;20194;-62
2023/10/31 01:14:56;;;;;;;4.80;3.92;;;10.70;99.90;;;;;;5052123;28;20273;-64
2023/10/31 01:17:22;;;;;;;4.20;3.80;;;10.80;99.90;;;;;;5053397;28;20202;-65
2023/10/31 01:19:48;;;;;;;4.05;3.65;;;10.80;99.90;;;;;;5053391;28;20257;-63
2023/10/31 01:22:14;;;;;;;10.90;4.60;;;10.80;99.90;;;;;;5053550;28;20533;-65
2023/10/31 01:24:39;;;;;;;6.65;4.40;;;10.80;99.90;;;;;;5053245;28;20230;-62
2023/10/31 01:27:05;;;;;;;4.57;4.20;;;10.80;99.90;;;;;;5053310;28;20224;-64
2023/10/31 01:29:31;;;;;;;4.05;3.75;;;10.80;99.90;;;;;;5069489;28;20185;-65
2023/10/31 01:31:57;;;;;;;5.13;3.80;;;10.80;99.90;;;;;;5073422;28;20196;-64
2023/10/31 01:34:23;;;;;;;3.75;3.42;;;10.80;99.90;;;;;;5070075;28;20188;-63
2023/10/31 01:36:49;;;;;;;3.92;3.63;;;10.70;99.90;;;;;;5053549;28;20167;-64
2023/10/31 01:39:14;;;;;;;8.52;3.30;;;10.60;99.90;;;;;;5053002;28;20179;-64
2023/10/31 01:41:43;;;;;;;3.30;3.10;;;10.60;99.90;;;;;;5053469;28;20281;-63
2023/10/31 01:44:10;;;;;;;3.53;3.22;;;10.60;99.90;;;;;;5054891;28;20714;-64
2023/10/31 01:46:36;;;;;;;3.63;3.38;;;10.60;99.90;;;;;;5057666;28;20176;-64
2023/10/31 01:49:02;;;;;;;3.38;3.08;;;10.60;99.90;;;;;;5057255;28;20174;-64
2023/10/31 01:51:29;;;;;;;3.95;3.65;;;10.60;99.90;;;;;;5057471;28;20221;-66
2023/10/31 01:53:56;;;;;;;3.72;3.30;;;10.60;99.90;;;;;;5057384;28;20181;-64
2023/10/31 01:56:22;;;;;;;4.10;3.80;;;10.60;99.90;;;;;;5057513;28;20232;-65
2023/10/31 01:58:49;;;;;;;4.63;3.90;;;10.60;99.90;;;;;;5067596;28;20178;-63
2023/10/31 02:01:15;;;;;;;4.30;4.00;;;10.60;99.90;;;;;;5077033;28;20216;-64
2023/10/31 02:03:41;;;;;;;4.95;4.55;;;10.60;99.90;;;;;;5076876;28;20174;-64
2023/10/31 02:06:07;;;;;;;5.38;4.90;;;10.60;99.90;;;;;;5059931;28;20674;-63
2023/10/31 02:08:33;;;;;;;5.57;5.13;;;10.50;99.90;;;;;;5057670;28;20181;-64
2023/10/31 02:10:59;;;;;;;6.45;5.85;;;10.60;99.90;;;;;;5057360;28;20191;-65
2023/10/31 02:13:25;;;;;;;6.78;6.13;;;10.50;99.90;;;;;;5057209;28;20256;-63
2023/10/31 02:15:51;;;;;;;5.97;5.32;;;10.50;99.90;;;;;;5057087;28;20253;-64
2023/10/31 02:18:17;;;;;;;6.57;5.43;;;10.50;99.90;;;;;;5056918;28;20171;-65
2023/10/31 02:20:43;;;;;;;6.85;5.28;;;10.40;99.90;;;;;;5056769;28;20206;-66
2023/10/31 02:23:09;;;;;;;5.45;4.90;;;10.40;99.90;;;;;;5055204;28;20210;-66
2023/10/31 02:25:35;;;;;;;7.43;5.38;;;10.50;99.90;;;;;;5056871;28;20287;-67
2023/10/31 02:28:01;;;;;;;7.45;4.63;;;10.50;99.90;;;;;;5059089;28;20181;-65
2023/10/31 02:30:27;;;;;;;5.25;4.70;;;10.50;99.90;;;;;;5076623;28;20166;-65
2023/10/31 02:32:53;;;;;;;6.25;4.60;;;10.40;99.90;;;;;;5076984;28;20189;-65
2023/10/31 02:35:19;;;;;;;7.88;4.35;;;10.40;99.90;;;;;;5065704;28;20182;-65
2023/10/31 02:37:49;;;;;;;9.27;4.50;;;10.40;99.90;;;;;;5055425;28;20182;-65
2023/10/31 02:40:15;;;;;;;5.00;4.60;;;10.50;99.90;;;;;;5056629;28;20198;-65
2023/10/31 02:42:41;;;;;;;6.18;4.68;;;10.40;99.90;;;;;;5056506;28;20642;-65
2023/10/31 02:45:07;;;;;;;5.03;4.60;;;10.40;99.90;;;;;;5056513;28;20205;-64
2023/10/31 02:47:33;;;;;;;8.35;4.47;;;10.30;99.90;;;;;;5055254;28;20232;-65
2023/10/31 02:49:59;;;;;;;4.05;3.75;;;10.20;99.90;;;;;;5056248;28;20182;-64
2023/10/31 02:52:25;;;;;;;4.20;3.80;;;10.20;99.90;;;;;;5056540;28;20186;-65
2023/10/31 02:54:51;;;;;;;5.05;4.35;;;10.20;99.90;;;;;;5055943;28;20598;-65
2023/10/31 02:57:16;;;;;;;5.25;4.68;;;10.20;99.90;;;;;;5056286;28;20187;-64
2023/10/31 02:59:42;;;;;;;7.13;5.28;;;10.20;99.90;;;;;;5074022;28;20273;-65
2023/10/31 03:02:08;;;;;;;10.82;6.28;;;10.10;99.90;;;;;;5076244;28;20217;-64
2023/10/31 03:04:34;;;;;;;8.35;6.10;;;10.10;99.90;;;;;;5071159;28;20213;-64
2023/10/31 03:07:00;;;;;;;6.43;5.75;;;10.00;99.90;;;;;;5055985;28;20175;-64
2023/10/31 03:09:26;;;;;;;7.45;5.40;;;10.00;99.90;;;;;;5055591;28;20257;-65
2023/10/31 03:11:52;;;;;;;6.05;4.97;;;9.90;99.90;;;;;;5055453;28;20190;-65
2023/10/31 03:14:18;;;;;;;5.20;4.70;;;9.90;99.90;;;;;;5055747;28;20183;-65
2023/10/31 03:16:44;;;;;;;5.43;4.90;;;9.80;99.90;;;;;;5055914;28;20177;-65
2023/10/31 03:19:09;;;;;;;10.95;6.40;;;9.90;99.90;;;;;;5055592;28;20185;-64
2023/10/31 03:21:35;;;;;;;8.10;6.18;;;9.80;99.90;;;;;;5056243;28;20690;-65
2023/10/31 03:24:01;;;;;;;8.10;7.28;;;9.80;99.90;;;;;;5056085;28;20551;-65
2023/10/31 03:26:27;;;;;;;9.25;6.60;;;9.90;99.90;;;;;;5055914;28;20174;-65
2023/10/31 03:28:56;;;;;;;7.38;6.45;;;9.90;99.90;;;;;;5066629;28;20190;-65
2023/10/31 03:31:23;;;;;;;6.85;6.22;;;9.90;99.90;;;;;;5075944;28;20186;-65
2023/10/31 03:33:49;;;;;;;9.15;6.80;;;9.80;99.90;;;;;;5075742;28;20596;-65
2023/10/31 03:36:14;;;;;;;11.25;7.00;;;9.90;99.90;;;;;;5057061;28;20262;-65
2023/10/31 03:38:40;;;;;;;8.65;7.30;;;9.90;99.90;;;;;;5055356;28;20181;-65
2023/10/31 03:41:07;;;;;;;8.23;6.85;;;9.90;99.90;;;;;;5055851;28;20232;-65
2023/10/31 03:43:33;;;;;;;10.48;7.57;;;9.90;99.90;;;;;;5055594;28;20171;-65
2023/10/31 03:46:00;;;;;;;9.20;8.07;;;9.90;99.90;;;;;;5055126;28;20229;-64
2023/10/31 03:48:26;;;;;;;13.38;9.13;;;9.90;99.90;;;;;;5053643;28;20186;-65
2023/10/31 03:50:51;;;;;;;16.27;9.27;;;9.90;99.90;;;;;;5054901;28;20252;-65
2023/10/31 03:53:17;;;;;;;15.90;10.05;;;9.90;99.90;;;;;;5055159;28;20254;-65
2023/10/31 03:55:43;;;;;;;17.48;11.15;;;9.90;99.90;;;;;;5055386;28;20576;-65
2023/10/31 03:58:09;;;;;;;14.13;11.27;;;10.00;99.90;;;;;;5059903;28;20265;-65
2023/10/31 04:00:34;;;;;;;19.83;11.98;;;10.00;99.90;;;;;;5074722;28;20228;-64
2023/10/31 04:03:01;;;;;;;17.58;11.82;;;10.00;99.90;;;;;;5075356;28;20223;-64
2023/10/31 04:05:26;;;;;;;16.63;11.40;;;10.00;99.90;;;;;;5062670;28;20205;-64
2023/10/31 04:07:52;;;;;;;15.48;11.23;;;10.10;99.90;;;;;;5054517;28;20711;-65
2023/10/31 04:10:19;;;;;;;17.23;11.75;;;10.10;99.90;;;;;;5054832;28;20174;-65
2023/10/31 04:12:45;;;;;;;15.55;11.50;;;10.10;99.90;;;;;;5054681;28;20170;-64
2023/10/31 04:15:11;;;;;;;20.45;11.70;;;10.10;99.90;;;;;;5054727;28;20263;-64
2023/10/31 04:17:37;;;;;;;17.23;11.15;;;10.10;99.90;;;;;;5054724;28;20179;-64
2023/10/31 04:20:04;;;;;;;18.15;10.95;;;10.10;99.90;;;;;;5054590;28;20171;-63
2023/10/31 04:22:29;;;;;;;14.55;10.77;;;10.10;99.90;;;;;;5054653;28;20217;-65
2023/10/31 04:24:56;;;;;;;15.02;10.10;;;10.00;99.90;;;;;;5054447;28;20619;-63
2023/10/31 04:27:22;;;;;;;14.20;10.43;;;10.00;99.90;;;;;;5054157;28;20201;-64
2023/10/31 04:29:47;;;;;;;19.17;11.68;;;10.00;99.90;;;;;;5072457;28;20213;-65
2023/10/31 04:32:13;;;;;;;16.05;11.00;;;10.00;99.90;;;;;;5074086;28;20667;-64
2023/10/31 04:34:39;;;;;;;15.55;11.40;;;10.00;99.90;;;;;;5069292;28;20244;-64
2023/10/31 04:37:05;;;;;;;16.15;12.60;;;10.00;99.90;;;;;;5054700;28;20188;-64
2023/10/31 04:39:31;;;;;;;21.42;12.15;;;9.90;99.90;;;;;;5054471;28;20165;-65
2023/10/31 04:41:57;;;;;;;14.82;11.73;;;9.90;99.90;;;;;;5054579;28;20269;-65
2023/10/31 04:44:22;;;;;;;16.17;11.65;;;9.90;99.90;;;;;;5055013;28;20654;-65
2023/10/31 04:46:48;;;;;;;19.88;12.35;;;9.90;99.90;;;;;;5054597;28;20662;-65
2023/10/31 04:49:15;;;;;;;20.30;12.65;;;9.90;99.90;;;;;;5052843;28;20497;-65
2023/10/31 04:51:42;;;;;;;18.17;12.40;;;9.90;99.90;;;;;;5054622;28;20676;-65
2023/10/31 04:54:07;;;;;;;19.13;13.32;;;9.90;99.90;;;;;;5054270;28;20171;-65
2023/10/31 04:56:33;;;;;;;19.02;13.32;;;9.90;99.90;;;;;;5054727;28;20654;-65
2023/10/31 04:58:59;;;;;;;16.30;11.82;;;9.80;99.90;;;;;;5065283;28;20722;-65
2023/10/31 05:01:25;;;;;;;14.98;12.38;;;9.80;99.90;;;;;;5073586;28;20216;-65
2023/10/31 05:03:51;;;;;;;16.73;13.45;;;9.80;99.90;;;;;;5073975;28;20654;-66
2023/10/31 05:06:21;;;;;;;19.20;12.75;;;9.90;99.90;;;;;;5054808;28;20174;-65
2023/10/31 05:08:48;;;;;;;18.77;11.95;;;9.90;99.90;;;;;;5053766;28;20170;-65
2023/10/31 05:11:16;;;;;;;14.77;11.68;;;9.80;99.90;;;;;;5053449;28;20182;-65
2023/10/31 05:13:42;;;;;;;17.48;12.07;;;9.80;99.90;;;;;;5053770;28;20197;-65
2023/10/31 05:16:08;;;;;;;14.50;10.80;;;9.80;99.90;;;;;;5053702;28;20175;-65
2023/10/31 05:18:36;;;;;;;16.70;11.15;;;9.80;99.90;;;;;;5052828;28;20200;-65
2023/10/31 05:21:02;;;;;;;14.85;10.65;;;9.80;99.90;;;;;;5053465;28;20225;-65
2023/10/31 05:23:27;;;;;;;13.65;10.85;;;9.80;99.90;;;;;;5053543;28;20170;-64
2023/10/31 05:25:53;;;;;;;12.52;10.10;;;9.80;99.90;;;;;;5052486;28;20638;-65
2023/10/31 05:28:19;;;;;;;13.53;10.27;;;9.80;99.90;;;;;;5059744;28;20550;-64
2023/10/31 05:30:45;;;;;;;12.38;10.35;;;9.90;99.90;;;;;;5073098;28;20229;-65
2023/10/31 05:33:10;;;;;;;14.80;10.43;;;9.90;99.90;;;;;;5073693;28;20172;-64
2023/10/31 05:35:36;;;;;;;13.45;10.70;;;9.90;99.90;;;;;;5059721;28;20193;-65
2023/10/31 05:38:02;;;;;;;12.48;10.23;;;9.90;99.90;;;;;;5053053;28;20180;-65
2023/10/31 05:40:29;;;;;;;16.02;10.93;;;9.90;99.90;;;;;;5052954;28;20186;-65
2023/10/31 05:42:55;;;;;;;13.63;10.30;;;9.80;99.90;;;;;;5051742;28;20189;-65
2023/10/31 05:45:21;;;;;;;13.23;10.57;;;9.80;99.90;;;;;;5052856;28;20198;-65
2023/10/31 05:47:47;;;;;;;14.23;11.02;;;9.80;99.90;;;;;;5053756;28;20576;-65
2023/10/31 05:50:12;;;;;;;11.80;9.10;;;9.80;99.90;;;;;;5052489;28;20196;-64
2023/10/31 05:52:38;;;;;;;10.65;8.43;;;9.80;99.90;;;;;;5052858;28;20609;-65
2023/10/31 05:55:04;;;;;;;9.98;7.72;;;9.90;99.90;;;;;;5053114;28;20541;-65
2023/10/31 05:57:30;;;;;;;10.85;7.78;;;9.90;99.90;;;;;;5053081;28;20533;-65
2023/10/31 05:59:56;;;;;;;8.38;7.25;;;9.90;99.90;;;;;;5072373;28;20182;-64
2023/10/31 06:02:21;;;;;;;10.70;8.10;;;9.90;99.90;;;;;;5072642;28;20632;-63
2023/10/31 06:04:47;;;;;;;9.47;7.30;;;9.90;99.90;;;;;;5066277;28;20213;-64
2023/10/31 06:07:14;;;;;;;11.93;8.15;;;9.90;99.90;;;;;;5052956;28;20170;-63
2023/10/31 06:09:40;;;;;;;9.32;7.93;;;9.90;99.90;;;;;;5052713;28;20180;-64
2023/10/31 06:12:05;;;;;;;10.27;8.35;;;10.00;99.90;;;;;;5052642;28;20194;-64
2023/10/31 06:14:32;;;;;;;16.00;8.60;;;10.00;99.90;;;;;;5052925;28;20174;-65
2023/10/31 06:16:59;;;;;;;11.68;8.05;;;10.00;99.90;;;;;;5051406;28;20538;-65
2023/10/31 06:19:24;;;;;;;12.32;8.70;;;10.10;99.90;;;;;;5052775;28;20213;-65
2023/10/31 06:21:50;;;;;;;10.93;8.90;;;10.10;99.90;;;;;;5052882;28;20607;-63
2023/10/31 06:24:16;;;;;;;11.25;9.15;;;10.00;99.90;;;;;;5053180;28;20202;-64
2023/10/31 06:26:42;;;;;;;10.63;8.70;;;10.10;99.90;;;;;;5053499;28;20181;-63
2023/10/31 06:29:08;;;;;;;13.63;10.02;;;10.10;99.90;;;;;;5065672;28;20181;-64
2023/10/31 06:31:33;;;;;;;13.30;8.95;;;10.10;99.90;;;;;;5076432;28;20240;-64
2023/10/31 06:33:59;;;;;;;14.18;10.48;;;10.10;99.90;;;;;;5076338;28;20174;-64
2023/10/31 06:36:25;;;;;;;11.98;9.75;;;10.10;99.90;;;;;;5056867;28;20178;-64
2023/10/31 06:38:50;;;;;;;14.65;9.77;;;10.10;99.90;;;;;;5057109;28;20166;-64
2023/10/31 06:41:16;;;;;;;13.15;10.13;;;10.10;99.90;;;;;;5056860;28;20252;-64
2023/10/31 06:43:42;;;;;;;15.50;10.68;;;10.10;99.90;;;;;;5056916;28;20171;-62
2023/10/31 06:46:08;;;;;;;13.32;10.07;;;10.10;99.90;;;;;;5056939;28;20190;-64
2023/10/31 06:48:34;;;;;;;15.50;12.05;;;10.10;99.90;;;;;;5056607;28;20171;-64
2023/10/31 06:51:00;;;;;;;14.05;10.80;;;10.10;99.90;;;;;;5056540;28;20562;-65
2023/10/31 06:53:26;;;;;;;16.75;12.07;;;10.10;99.90;;;;;;5056379;28;20175;-65
2023/10/31 06:55:51;;;;;;;18.58;12.10;;;10.10;99.90;;;;;;5055258;28;20273;-64
2023/10/31 06:58:17;;;;;;;14.90;11.85;;;10.10;99.90;;;;;;5060927;28;20185;-64
2023/10/31 07:00:43;;;;;;;15.67;11.97;;;10.10;99.90;;;;;;5075902;28;20193;-64
2023/10/31 07:03:14;;;;;;;17.27;11.70;;;10.10;99.90;;;;;;5076056;28;20708;-65
2023/10/31 07:05:40;;;;;;;14.73;11.45;;;10.20;99.90;;;;;;5061993;28;20198;-65
2023/10/31 07:08:06;;;;;;;14.40;11.57;;;10.20;99.90;;;;;;5055871;28;20177;-65
2023/10/31 07:10:33;;;;;;;16.27;11.68;;;10.20;99.90;;;;;;5056221;28;20199;-64
2023/10/31 07:13:01;;;;;;;16.70;12.35;;;10.20;99.90;;;;;;5056082;28;20584;-65
2023/10/31 07:15:27;;;;;;;17.30;12.73;;;10.20;99.90;;;;;;5056892;28;20561;-64
2023/10/31 07:17:53;;;;;;;15.95;11.70;;;10.20;99.90;;;;;;5056010;28;20178;-64
2023/10/31 07:20:19;;;;;;;16.27;11.55;;;10.20;99.90;;;;;;5055662;28;20227;-64
2023/10/31 07:22:45;;;;;;;19.50;13.63;;;10.20;99.90;;;;;;5055755;28;20178;-64
2023/10/31 07:25:11;;;;;;;14.15;11.38;;;10.20;99.90;;;;;;5055996;28;20194;-64
2023/10/31 07:27:37;;;;;;;14.85;12.15;;;10.20;99.90;;;;;;5055991;28;20175;-64
2023/10/31 07:30:05;;;;;;;13.85;11.55;;;10.20;99.90;;;;;;5075821;28;20181;-63
2023/10/31 07:32:30;;;;;;;14.75;11.32;;;10.20;99.90;;;;;;5074331;28;20758;-63
2023/10/31 07:34:57;;;;;;;13.25;10.63;;;10.20;99.90;;;;;;5067630;28;20261;-63
2023/10/31 07:37:23;;;;;;;11.50;9.88;;;10.20;99.90;;;;;;5056147;28;20171;-62
2023/10/31 07:39:50;;;;;;;14.55;11.23;;;10.20;99.90;;;;;;5056018;28;20236;-64
2023/10/31 07:42:16;;;;;;;14.07;11.05;;;10.20;99.90;;;;;;5054632;28;20686;-63
2023/10/31 07:44:42;;;;;;;12.70;9.88;;;10.20;99.90;;;;;;5055524;28;20239;-63
2023/10/31 07:47:08;;;;;;;12.70;10.68;;;10.30;99.90;;;;;;5055869;28;20212;-64
2023/10/31 07:49:33;;;;;;;11.20;9.43;;;10.30;99.90;;;;;;5054959;28;20171;-64
2023/10/31 07:51:59;;;;;;;13.85;9.23;;;10.30;99.90;;;;;;5055315;28;20218;-64
2023/10/31 07:54:25;;;;;;;12.05;9.70;;;10.30;99.90;;;;;;5055537;28;20213;-63
2023/10/31 07:56:51;;;;;;;11.20;9.48;;;10.40;99.90;;;;;;5055106;28;20185;-64
2023/10/31 07:59:16;;;;;;;12.50;10.18;;;10.30;99.90;;;;;;5068918;28;20214;-63
2023/10/31 08:01:42;;;;;;;13.75;9.35;;;10.30;99.90;;;;;;5075061;28;20205;-64
2023/10/31 08:04:08;;;;;;;13.23;9.20;;;10.30;99.90;;;;;;5074252;28;20173;-64
2023/10/31 08:06:34;;;;;;;11.25;9.70;;;10.30;99.90;;;;;;5054324;28;20178;-65
2023/10/31 08:09:00;;;;;;;14.50;10.35;;;10.30;99.90;;;;;;5054290;28;20174;-64
2023/10/31 08:11:26;;;;;;;10.70;9.02;;;10.30;99.90;;;;;;5054693;28;20191;-64
2023/10/31 08:13:52;;;;;;;12.23;9.35;;;10.30;99.90;;;;;;5054979;28;20203;-64
2023/10/31 08:16:19;;;;;;;11.07;8.98;;;10.30;99.90;;;;;;5054872;28;20186;-64
2023/10/31 08:18:45;;;;;;;11.27;8.93;;;10.30;99.90;;;;;;5054789;28;20177;-64
2023/10/31 08:21:12;;;;;;;9.55;8.15;;;10.30;99.90;;;;;;5054545;28;20565;-65
2023/10/31 08:23:38;;;;;;;10.88;7.63;;;10.30;99.90;;;;;;5054982;28;20221;-63
2023/10/31 08:26:04;;;;;;;9.23;8.30;;;10.40;99.90;;;;;;5054639;28;20205;-64
2023/10/31 08:28:30;;;;;;;9.80;8.32;;;10.40;99.90;;;;;;5062087;28;20178;-64
2023/10/31 08:30:57;;;;;;;11.10;7.88;;;10.40;99.90;;;;;;5074744;28;20193;-64
2023/10/31 08:33:23;;;;;;;11.85;8.95;;;10.40;99.90;;;;;;5074881;28;20646;-64
2023/10/31 08:35:48;;;;;;;12.77;9.50;;;10.50;99.90;;;;;;5059300;28;20190;-64
2023/10/31 08:38:14;;;;;;;10.57;8.38;;;10.50;99.90;;;;;;5054387;28;20558;-64
2023/10/31 08:40:41;;;;;;;10.52;8.98;;;10.50;99.90;;;;;;5054222;28;20255;-64
2023/10/31 08:43:07;;;;;;;10.50;9.45;;;10.60;99.90;;;;;;5054530;28;20183;-61
2023/10/31 08:45:33;;;;;;;13.15;9.70;;;10.60;99.90;;;;;;5054405;28;20204;-64
2023/10/31 08:48:00;;;;;;;15.15;10.75;;;10.60;99.90;;;;;;5054295;28;20611;-64
2023/10/31 08:50:25;;;;;;;10.15;8.95;;;10.60;99.90;;;;;;5053808;28;20185;-64
2023/10/31 08:52:51;;;;;;;10.40;9.35;;;10.60;99.90;;;;;;5054397;28;20174;-64
2023/10/31 08:55:17;;;;;;;12.88;9.70;;;10.60;99.90;;;;;;5052984;28;20202;-65
2023/10/31 08:57:43;;;;;;;14.90;9.40;;;10.60;99.90;;;;;;5055124;28;20178;-64
2023/10/31 09:00:09;;;;;;;10.95;9.32;;;10.60;99.90;;;;;;5074553;28;20169;-64
2023/10/31 09:02:35;;;;;;;10.20;9.10;;;10.60;99.90;;;;;;5074066;28;20581;-65
2023/10/31 09:05:01;;;;;;;13.18;8.95;;;10.70;99.90;;;;;;5065418;28;20224;-63
2023/10/31 09:07:27;;;;;;;9.85;8.63;;;10.80;99.90;;;;;;5053727;28;20178;-64
2023/10/31 09:09:52;;;;;;;9.68;7.57;;;10.90;99.90;;;;;;5053928;28;20171;-64
2023/10/31 09:12:18;;;;;;;9.02;8.13;;;11.00;99.90;;;;;;5053737;28;20194;-65
2023/10/31 09:14:45;;;;;;;8.63;7.70;;;10.90;99.90;;;;;;5053825;28;20171;-64
2023/10/31 09:17:10;;;;;;;8.18;7.30;;;10.90;99.90;;;;;;5053769;28;20178;-64
2023/10/31 09:19:36;;;;;;;7.85;6.97;;;10.90;99.90;;;;;;5054062;28;20522;-65
2023/10/31 09:22:02;;;;;;;8.38;7.57;;;10.90;99.90;;;;;;5052893;28;20667;-64
2023/10/31 09:24:28;;;;;;;8.88;7.65;;;10.90;99.90;;;;;;5053714;28;20198;-62
2023/10/31 09:26:53;;;;;;;11.73;8.18;;;10.90;99.90;;;;;;5053642;28;20688;-64
2023/10/31 09:29:19;;;;;;;9.10;8.13;;;10.90;99.90;;;;;;5068119;28;20181;-64
2023/10/31 09:31:45;;;;;;;8.90;7.22;;;10.90;99.90;;;;;;5073542;28;20186;-65
2023/10/31 09:34:11;;;;;;;10.13;7.88;;;11.00;99.90;;;;;;5070712;28;20174;-63
2023/10/31 09:36:39;;;;;;;9.35;7.07;;;11.00;99.90;;;;;;5053319;28;20197;-65
2023/10/31 09:39:05;;;;;;;8.00;7.05;;;11.00;99.90;;;;;;5053402;28;20237;-64
2023/10/31 09:41:32;;;;;;;9.15;7.15;;;11.10;99.90;;;;;;5053783;28;20186;-65
2023/10/31 09:43:58;;;;;;;7.82;7.03;;;11.10;99.90;;;;;;5053543;28;20253;-64
2023/10/31 09:46:23;;;;;;;7.57;6.40;;;11.20;99.90;;;;;;5052163;28;20273;-64
2023/10/31 09:48:51;;;;;;;7.85;6.32;;;11.20;99.90;;;;;;5053668;28;20210;-62
2023/10/31 09:51:17;;;;;;;8.70;7.10;;;11.20;99.90;;;;;;5053095;28;20255;-63
2023/10/31 09:53:45;;;;;;;7.40;6.63;;;11.10;99.90;;;;;;5053443;28;20175;-65
2023/10/31 09:56:11;;;;;;;8.23;7.38;;;11.10;99.90;;;;;;5053714;28;20516;-64
2023/10/31 09:58:39;;;;;;;8.07;6.97;;;11.20;99.90;;;;;;5062013;28;20263;-65
2023/10/31 10:01:05;;;;;;;11.88;7.88;;;11.20;99.90;;;;;;5073038;28;20702;-64
2023/10/31 10:03:31;;;;;;;8.43;6.93;;;11.10;99.90;;;;;;5073343;28;20189;-65
2023/10/31 10:05:58;;;;;;;8.98;7.63;;;11.10;99.90;;;;;;5059306;28;20650;-65
2023/10/31 10:08:24;;;;;;;7.82;6.60;;;11.10;99.90;;;;;;5057268;28;20197;-65
2023/10/31 10:10:51;;;;;;;7.85;6.38;;;11.20;99.90;;;;;;5057764;28;20233;-65
2023/10/31 10:13:23;;;;;;;8.57;6.75;;;11.30;99.90;;;;;;5057210;28;20178;-65
2023/10/31 10:15:53;;;;;;;9.27;7.05;;;11.30;99.90;;;;;;5057152;28;20216;-65
2023/10/31 10:18:30;;;;;;;12.23;6.93;;;11.30;99.90;;;;;;5055854;28;20176;-65
2023/10/31 10:21:02;;;;;;;9.70;7.40;;;11.40;99.90;;;;;;5056818;28;20221;-64
2023/10/31 10:23:29;;;;;;;12.15;7.22;;;11.50;99.90;;;;;;5057429;28;20247;-64
2023/10/31 10:25:56;;;;;;;8.35;6.78;;;11.40;99.90;;;;;;5056975;28;20195;-65
2023/10/31 10:28:22;;;;;;;9.85;6.70;;;11.40;99.90;;;;;;5063374;28;20217;-63
2023/10/31 10:30:48;;;;;;;7.88;7.07;;;11.50;99.90;;;;;;5075624;28;20197;-65
2023/10/31 10:33:15;;;;;;;9.05;6.78;;;11.50;99.90;;;;;;5077076;28;20215;-64
2023/10/31 10:35:42;;;;;;;8.57;6.82;;;11.50;99.90;;;;;;5062802;28;20557;-65
2023/10/31 10:38:14;;;;;;;10.68;7.22;;;11.50;99.90;;;;;;5056825;28;20186;-64
2023/10/31 10:40:44;;;;;;;9.13;6.45;;;11.50;99.90;;;;;;5056790;28;20273;-64
2023/10/31 10:43:24;;;;;;;9.23;6.90;;;11.50;99.90;;;;;;5057271;28;20158;-65
2023/10/31 10:45:59;;;;;;;9.02;6.65;;;11.50;99.90;;;;;;5056899;28;20573;-64
2023/10/31 10:48:26;;;;;;;8.90;6.38;;;11.50;99.90;;;;;;5056615;28;20165;-64
2023/10/31 10:51:24;;;;;;;10.88;6.82;;;11.40;99.90;;;;;;5056183;28;20554;-65
2023/10/31 10:53:57;;;;;;;9.57;6.50;;;11.50;99.90;;;;;;5056242;28;20185;-65
2023/10/31 10:56:34;;;;;;;13.25;7.38;;;11.40;99.90;;;;;;5055324;28;20173;-65
2023/10/31 10:59:08;;;;;;;11.32;7.40;;;11.50;99.90;;;;;;5068219;28;20658;-65
2023/10/31 11:01:36;;;;;;;9.75;7.45;;;11.50;99.90;;;;;;5076466;28;20221;-65
2023/10/31 11:04:03;;;;;;;14.93;8.00;;;11.40;99.90;;;;;;5076327;28;20178;-65
2023/10/31 11:06:30;;;;;;;8.88;7.55;;;11.40;99.90;;;;;;5056023;28;20214;-64
2023/10/31 11:08:56;;;;;;;10.93;7.35;;;11.40;99.90;;;;;;5056289;28;20213;-65
2023/10/31 11:11:23;;;;;;;8.60;7.70;;;11.30;99.90;;;;;;5055964;28;20190;-64
2023/10/31 11:13:51;;;;;;;10.80;7.45;;;11.40;99.90;;;;;;5056245;28;20246;-65
2023/10/31 11:16:29;;;;;;;16.10;8.38;;;11.40;99.90;;;;;;5054889;28;20193;-65
2023/10/31 11:18:55;;;;;;;12.65;8.27;;;11.30;99.90;;;;;;5056276;28;20163;-65
2023/10/31 11:21:23;;;;;;;9.18;8.07;;;11.30;99.90;;;;;;5055547;28;20245;-63
2023/10/31 11:24:00;;;;;;;12.20;8.38;;;11.30;99.90;;;;;;5055760;28;20174;-64
2023/10/31 11:26:32;;;;;;;15.63;8.80;;;11.30;99.90;;;;;;5054393;28;20264;-64
2023/10/31 11:29:08;;;;;;;11.93;7.82;;;11.20;99.90;;;;;;5067016;28;20181;-63
2023/10/31 11:31:37;;;;;;;14.50;7.88;;;11.30;99.90;;;;;;5075683;28;20696;-65
2023/10/31 11:34:03;;;;;;;11.82;8.15;;;11.30;99.90;;;;;;5075441;28;20166;-64
2023/10/31 11:36:35;;;;;;;10.88;7.80;;;11.30;99.90;;;;;;5054948;28;20166;-65
2023/10/31 11:39:15;;;;;;;17.30;8.63;;;11.30;99.90;;;;;;5055164;28;20652;-65
2023/10/31 11:41:49;;;;;;;12.85;7.47;;;11.30;99.90;;;;;;5055062;28;20186;-64
2023/10/31 11:44:16;;;;;;;11.52;6.93;;;11.40;99.90;;;;;;5055311;28;20173;-65
2023/10/31 11:46:42;;;;;;;12.95;7.20;;;11.40;99.90;;;;;;5055158;28;20171;-64
2023/10/31 11:49:08;;;;;;;10.25;7.55;;;11.40;99.90;;;;;;5055441;28;20167;-64
2023/10/31 11:51:35;;;;;;;9.77;7.00;;;11.40;99.90;;;;;;5055096;28;20194;-64
2023/10/31 11:54:01;;;;;;;13.95;7.40;;;11.50;99.90;;;;;;5056032;28;20170;-64
2023/10/31 11:56:27;;;;;;;9.15;6.63;;;11.50;99.90;;;;;;5055507;28;20574;-64
2023/10/31 11:59:04;;;;;;;7.38;6.53;;;11.50;99.90;;;;;;5066266;28;20174;-64
2023/10/31 12:01:29;;;;;;;9.75;6.82;;;11.50;99.90;;;;;;5075277;28;20602;-64
2023/10/31 12:03:55;;;;;;;9.30;6.88;;;11.50;99.90;;;;;;5075030;28;20162;-64
2023/10/31 12:06:21;;;;;;;9.50;6.68;;;11.50;99.90;;;;;;5055352;28;20610;-65
2023/10/31 12:08:48;;;;;;;9.95;6.93;;;11.50;99.90;;;;;;5054973;28;20201;-64
2023/10/31 12:11:22;;;;;;;8.80;6.40;;;11.50;99.90;;;;;;5055242;28;20703;-65
2023/10/31 12:14:00;;;;;;;13.68;6.38;;;11.60;99.90;;;;;;5055467;28;20600;-63
2023/10/31 12:16:33;;;;;;;9.80;5.65;;;11.70;99.90;;;;;;5055096;28;20182;-64
2023/10/31 12:19:05;;;;;;;18.60;10.40;;;11.70;99.90;;;;;;5054973;28;20163;-64
2023/10/31 12:21:47;;;;;;;9.38;6.50;;;11.90;99.90;;;;;;5054559;28;20195;-64
2023/10/31 12:24:15;;;;;;;10.40;5.32;;;12.00;99.90;;;;;;5055136;28;20154;-65
2023/10/31 12:26:41;;;;;;;9.85;5.15;;;12.00;99.90;;;;;;5054666;28;20240;-64
2023/10/31 12:29:08;;;;;;;8.13;4.78;;;12.00;99.90;;;;;;5067000;28;20200;-64
2023/10/31 12:31:34;;;;;;;8.82;4.80;;;12.10;99.90;;;;;;5074800;28;20189;-64
2023/10/31 12:34:06;;;;;;;7.53;4.47;;;12.20;99.90;;;;;;5074615;28;20162;-63
2023/10/31 12:36:33;;;;;;;8.05;4.57;;;12.40;99.90;;;;;;5054170;28;20166;-64
2023/10/31 12:38:59;;;;;;;7.40;4.80;;;12.50;99.90;;;;;;5055053;28;20186;-64